Time;durP1;ratioP1;P1;durP2;ratioP2;P2;SDS_P1;SDS_P2;PMS_P1;PMS_P2;Temp;Humidity;BMP_temperature;BMP_pressure;BME280_temperature;BME280_humidity;BME280_pressure;Samples;Min_cycle;Max_cycle;Signal;HPM_P1;HPM_P2
2023/09/19 00:01:08;;;;;;;2.77;1.00;;;;;;;19.81;96.77;97765.91;5065959;23;20642;-91
2023/09/19 00:03:11;;;;;;;3.90;1.10;;;;;;;19.75;97.62;97756.81;5093110;23;20583;-91
2023/09/19 00:05:15;;;;;;;1.80;1.03;;;;;;;19.74;96.70;97765.78;5067092;23;20623;-91
2023/09/19 00:07:18;;;;;;;2.43;1.00;;;;;;;19.76;97.21;97766.41;5091602;23;20574;-92
2023/09/19 00:09:21;;;;;;;2.23;1.00;;;;;;;19.77;97.93;97768.09;5066234;23;20969;-91
2023/09/19 00:11:25;;;;;;;2.40;0.93;;;;;;;19.77;99.21;97762.78;5066973;23;20582;-91
2023/09/19 00:13:30;;;;;;;2.30;1.30;;;;;;;19.73;99.71;97761.47;5091323;23;20589;-91
2023/09/19 00:15:38;;;;;;;4.13;1.53;;;;;;;19.72;98.39;97767.75;5066377;23;20591;-90
2023/09/19 00:17:43;;;;;;;2.00;1.03;;;;;;;19.71;99.99;97771.41;5089517;23;20581;-92
2023/09/19 00:19:51;;;;;;;2.27;1.00;;;;;;;19.68;99.07;97774.38;5064829;23;20579;-91
2023/09/19 00:21:54;;;;;;;2.00;1.03;;;;;;;19.70;100.00;97777.69;5091813;23;20586;-91
2023/09/19 00:23:57;;;;;;;2.53;1.50;;;;;;;19.69;99.59;97781.31;5066421;23;21216;-91
2023/09/19 00:26:00;;;;;;;2.70;1.33;;;;;;;19.71;99.08;97787.28;5066371;23;20613;-91
2023/09/19 00:28:04;;;;;;;2.50;1.33;;;;;;;19.72;99.19;97786.28;5092620;23;20689;-91
2023/09/19 00:30:14;;;;;;;2.57;1.33;;;;;;;19.75;98.97;97795.72;5089785;23;20622;-91
2023/09/19 00:32:17;;;;;;;7.63;1.30;;;;;;;19.75;99.22;97791.22;5091022;23;20582;-91
2023/09/19 00:34:21;;;;;;;5.23;1.47;;;;;;;19.79;97.27;97799.69;5066864;23;20582;-91
2023/09/19 00:36:26;;;;;;;4.40;1.50;;;;;;;19.78;97.11;97795.38;5066364;23;21178;-91
2023/09/19 00:38:30;;;;;;;2.70;2.00;;;;;;;19.79;97.62;97799.69;5065707;23;20667;-90
2023/09/19 00:40:35;;;;;;;1.77;1.10;;;;;;;19.79;98.54;97803.16;5090726;23;20583;-91
2023/09/19 00:42:39;;;;;;;3.13;1.50;;;;;;;19.80;99.65;97807.47;5066249;23;20579;-91
2023/09/19 00:44:42;;;;;;;3.03;1.30;;;;;;;19.80;97.76;97802.16;5066468;23;21135;-91
2023/09/19 00:46:48;;;;;;;3.07;1.40;;;;;;;19.79;97.33;97805.78;5066498;23;20622;-91
2023/09/19 00:48:51;;;;;;;2.70;1.00;;;;;;;19.81;97.43;97801.16;5066671;23;21306;-91
2023/09/19 00:50:58;;;;;;;2.57;1.37;;;;;;;19.81;97.95;97803.78;5066169;23;20594;-91
2023/09/19 00:53:02;;;;;;;2.50;1.30;;;;;;;19.82;97.67;97808.09;5091082;23;20939;-91
2023/09/19 00:55:06;;;;;;;2.67;1.80;;;;;;;19.82;96.06;97800.16;5089686;23;20553;-91
2023/09/19 00:57:10;;;;;;;1.80;1.20;;;;;;;19.82;96.25;97804.66;5066189;23;21133;-91
2023/09/19 00:59:13;;;;;;;2.47;1.40;;;;;;;19.77;96.68;97807.78;5090681;23;20617;-91
2023/09/19 01:01:17;;;;;;;2.33;1.37;;;;;;;19.78;98.00;97812.06;5065949;23;20592;-91
2023/09/19 01:03:20;;;;;;;3.10;1.20;;;;;;;19.75;96.51;97803.66;5066252;23;20592;-91
2023/09/19 01:05:25;;;;;;;2.00;1.17;;;;;;;19.76;97.96;97803.47;5090509;23;20610;-91
2023/09/19 01:07:31;;;;;;;3.67;1.30;;;;;;;19.80;97.80;97810.09;5066226;23;20618;-91
2023/09/19 01:09:34;;;;;;;2.10;1.10;;;;;;;19.81;97.51;97810.91;5066393;23;20587;-91
2023/09/19 01:11:41;;;;;;;2.20;1.33;;;;;;;19.75;96.90;97801.81;5065699;23;20603;-93
2023/09/19 01:13:51;;;;;;;2.37;1.30;;;;;;;19.71;96.57;97807.63;5090413;23;20959;-91
2023/09/19 01:16:01;;;;;;;2.07;1.10;;;;;;;19.71;97.80;97813.75;5091056;23;20578;-91
2023/09/19 01:18:13;;;;;;;3.20;1.40;;;;;;;19.71;99.23;97811.09;5090913;23;21114;-91
2023/09/19 01:20:24;;;;;;;2.37;1.10;;;;;;;19.73;98.41;97813.59;5064821;23;20588;-91
2023/09/19 01:22:37;;;;;;;2.80;1.23;;;;;;;19.70;99.62;97820.03;5065745;23;20595;-95
2023/09/19 01:24:57;;;;;;;2.27;1.20;;;;;;;19.73;98.05;97824.19;5090220;23;20597;-95
2023/09/19 01:27:18;;;;;;;2.47;1.33;;;;;;;19.68;98.42;97816.75;5065654;23;20626;-94
2023/09/19 01:29:32;;;;;;;2.57;1.50;;;;;;;19.67;98.04;97819.56;5090905;23;20613;-95
2023/09/19 01:31:37;;;;;;;3.07;1.30;;;;;;;19.65;98.62;97824.16;5066915;23;20576;-95
2023/09/19 01:34:04;;;;;;;2.10;0.80;;;;;;;19.59;98.00;97822.19;5091125;23;21150;-95
2023/09/19 01:36:09;;;;;;;1.77;1.10;;;;;;;19.58;99.49;97813.44;5060062;23;21239;-96
2023/09/19 01:38:13;;;;;;;2.60;1.60;;;;;;;19.60;98.51;97819.38;5066906;23;20587;-94
2023/09/19 01:40:19;;;;;;;2.10;1.03;;;;;;;19.57;99.13;97821.53;5066437;23;20579;-95
2023/09/19 01:42:30;;;;;;;2.43;1.00;;;;;;;19.58;98.71;97823.19;5066171;23;20915;-95
2023/09/19 01:44:40;;;;;;;1.80;1.30;;;;;;;19.51;98.51;97822.19;5067104;23;20685;-95
2023/09/19 01:46:47;;;;;;;2.10;1.03;;;;;;;19.45;97.64;97814.91;5091095;23;20672;-94
2023/09/19 01:48:59;;;;;;;2.57;1.10;;;;;;;19.44;98.75;97823.88;5066991;23;20625;-94
2023/09/19 01:51:06;;;;;;;2.00;1.30;;;;;;;19.44;98.93;97824.69;5090828;23;20571;-95
2023/09/19 01:53:17;;;;;;;2.53;1.00;;;;;;;19.42;97.53;97826.69;5065592;23;20582;-93
2023/09/19 01:55:20;;;;;;;2.43;1.07;;;;;;;19.41;98.19;97830.31;5065570;23;20585;-95
2023/09/19 01:57:30;;;;;;;2.33;1.10;;;;;;;19.40;98.49;97833.94;5066861;23;20574;-95
2023/09/19 01:59:37;;;;;;;2.00;1.20;;;;;;;19.41;99.20;97837.44;5090925;23;20590;-95
2023/09/19 02:01:44;;;;;;;3.20;1.20;;;;;;;19.43;99.78;97838.91;5066543;23;20667;-96
2023/09/19 02:03:49;;;;;;;2.40;1.23;;;;;;;19.42;98.84;97839.91;5091157;23;20601;-95
2023/09/19 02:05:54;;;;;;;3.57;1.20;;;;;;;19.39;99.05;97834.09;5065704;23;20600;-96
2023/09/19 02:07:58;;;;;;;2.23;1.00;;;;;;;19.33;98.40;97833.94;5066635;23;20611;-95
2023/09/19 02:10:03;;;;;;;3.60;1.17;;;;;;;19.30;97.77;97842.22;5066875;23;20654;-95
2023/09/19 02:12:07;;;;;;;3.33;1.20;;;;;;;19.27;98.27;97838.06;5041284;23;20594;-96
2023/09/19 02:14:11;;;;;;;2.13;1.03;;;;;;;19.24;97.73;97846.31;5113944;23;20592;-96
2023/09/19 02:16:20;;;;;;;1.90;1.10;;;;;;;19.19;98.46;97847.81;5065385;23;20586;-95
2023/09/19 02:18:24;;;;;;;2.53;1.20;;;;;;;19.17;98.75;97848.00;5066309;23;20586;-95
2023/09/19 02:20:29;;;;;;;2.10;1.00;;;;;;;19.24;98.60;97848.97;5066589;23;20578;-95
2023/09/19 02:22:31;;;;;;;2.90;1.13;;;;;;;19.23;99.24;97854.41;5066469;23;20636;-94
2023/09/19 02:24:36;;;;;;;6.07;1.40;;;;;;;19.25;100.00;97855.09;5042167;23;20593;-95
2023/09/19 02:26:40;;;;;;;2.20;1.20;;;;;;;19.25;99.63;97857.75;5065948;23;20613;-96
2023/09/19 02:28:45;;;;;;;2.80;1.10;;;;;;;19.26;98.61;97856.75;5090769;23;20614;-95
2023/09/19 02:30:50;;;;;;;2.27;1.10;;;;;;;19.26;98.33;97852.28;5063074;23;20596;-94
2023/09/19 02:32:52;;;;;;;2.13;1.40;;;;;;;19.25;98.79;97863.84;5090478;23;21135;-95
2023/09/19 02:34:57;;;;;;;2.40;1.10;;;;;;;19.26;99.30;97864.66;5065866;23;20580;-95
2023/09/19 02:37:04;;;;;;;2.57;1.00;;;;;;;19.27;98.67;97868.97;5065288;23;20583;-96
2023/09/19 02:39:08;;;;;;;2.47;1.27;;;;;;;19.28;99.60;97862.72;5089206;23;20585;-95
2023/09/19 02:41:12;;;;;;;1.87;0.90;;;;;;;19.29;98.38;97867.00;5066209;23;20663;-95
2023/09/19 02:43:16;;;;;;;1.40;0.90;;;;;;;19.30;99.88;97869.47;5066267;23;20942;-95
2023/09/19 02:45:23;;;;;;;1.80;0.80;;;;;;;19.32;99.26;97862.22;5066183;23;20591;-96
2023/09/19 02:47:28;;;;;;;2.03;0.90;;;;;;;19.31;99.55;97870.31;5090499;23;20619;-94
2023/09/19 02:49:32;;;;;;;1.77;1.13;;;;;;;19.30;98.45;97864.19;5064802;23;20588;-95
2023/09/19 02:51:37;;;;;;;1.33;0.90;;;;;;;19.32;99.27;97866.66;5065650;23;20592;-95
2023/09/19 02:53:42;;;;;;;1.80;1.00;;;;;;;19.32;99.17;97871.94;5090825;23;21028;-94
2023/09/19 02:55:46;;;;;;;3.43;1.10;;;;;;;19.31;99.32;97865.84;5065629;23;20609;-95
2023/09/19 02:57:49;;;;;;;2.47;1.17;;;;;;;19.30;98.83;97873.94;5065802;23;20685;-95
2023/09/19 02:59:53;;;;;;;1.50;0.90;;;;;;;19.29;99.20;97874.94;5065048;23;20606;-96
2023/09/19 03:01:57;;;;;;;2.47;1.10;;;;;;;19.27;99.47;97883.03;5064809;23;20618;-95
2023/09/19 03:04:02;;;;;;;4.33;1.17;;;;;;;19.24;98.21;97877.25;5066253;23;20584;-95
2023/09/19 03:06:08;;;;;;;6.03;1.40;;;;;;;19.23;99.13;97880.88;5089462;23;20685;-94
2023/09/19 03:08:14;;;;;;;3.43;1.17;;;;;;;19.22;98.91;97879.22;5065392;23;20708;-95
2023/09/19 03:10:19;;;;;;;1.80;1.20;;;;;;;19.23;99.18;97887.00;5065196;23;20592;-95
2023/09/19 03:12:23;;;;;;;1.73;1.10;;;;;;;19.24;99.26;97888.63;5065518;23;20582;-95
2023/09/19 03:14:30;;;;;;;1.80;1.10;;;;;;;19.26;99.24;97889.31;5064904;23;20648;-95
2023/09/19 03:16:37;;;;;;;2.60;1.10;;;;;;;19.28;99.11;97886.53;5065497;23;20654;-96
2023/09/19 03:18:41;;;;;;;2.50;1.20;;;;;;;19.28;99.08;97889.16;5065193;23;20580;-94
2023/09/19 03:20:45;;;;;;;1.83;1.20;;;;;;;19.28;98.43;97886.53;5064209;23;20578;-95
2023/09/19 03:22:48;;;;;;;2.73;1.20;;;;;;;19.30;98.49;97889.81;5064643;23;20594;-95
2023/09/19 03:24:53;;;;;;;2.30;1.17;;;;;;;19.30;100.00;97887.19;5066137;23;20583;-96
2023/09/19 03:26:58;;;;;;;1.90;1.27;;;;;;;19.27;99.45;97888.31;5091029;23;20618;-95
2023/09/19 03:29:07;;;;;;;2.33;1.23;;;;;;;19.26;98.57;97891.13;5067809;23;20670;-95
2023/09/19 03:31:11;;;;;;;2.40;1.20;;;;;;;19.30;99.58;97895.09;5065956;23;20577;-95
2023/09/19 03:33:14;;;;;;;1.80;1.30;;;;;;;19.31;98.70;97883.56;5066315;23;20625;-95
2023/09/19 03:35:20;;;;;;;2.37;1.10;;;;;;;19.32;100.00;97887.81;5067807;23;20585;-95
2023/09/19 03:37:25;;;;;;;1.93;1.10;;;;;;;19.32;98.92;97885.19;5067692;23;20568;-95
2023/09/19 03:39:27;;;;;;;2.83;1.20;;;;;;;19.32;99.69;97890.47;5067441;23;20612;-94
2023/09/19 03:41:32;;;;;;;4.33;1.13;;;;;;;19.32;99.79;97893.97;5066926;23;20574;-93
2023/09/19 03:43:39;;;;;;;2.53;1.20;;;;;;;19.32;99.06;97893.97;5068263;23;20590;-94
2023/09/19 03:45:44;;;;;;;1.73;1.13;;;;;;;19.32;99.81;97888.69;5068053;23;20578;-94
2023/09/19 03:47:48;;;;;;;2.27;1.97;;;;;;;19.30;99.54;97889.81;5092349;23;20641;-96
2023/09/19 03:49:54;;;;;;;2.07;1.20;;;;;;;19.26;99.41;97883.19;5067785;23;20589;-96
2023/09/19 03:51:58;;;;;;;6.43;1.40;;;;;;;19.21;100.00;97885.50;5088647;23;20588;-94
2023/09/19 03:54:03;;;;;;;2.20;1.40;;;;;;;19.18;100.00;97886.66;5064974;23;20624;-94
2023/09/19 03:56:06;;;;;;;3.60;1.30;;;;;;;19.16;100.00;97885.19;5091613;23;20597;-95
2023/09/19 03:58:09;;;;;;;2.30;0.97;;;;;;;19.15;99.84;97896.72;5067310;23;20987;-95
2023/09/19 04:00:20;;;;;;;2.90;1.17;;;;;;;19.15;99.82;97894.09;5092513;23;20675;-96
2023/09/19 04:02:24;;;;;;;2.63;1.30;;;;;;;19.12;98.62;97884.66;5067054;23;20941;-94
2023/09/19 04:04:29;;;;;;;1.97;1.17;;;;;;;19.16;99.17;97896.56;5066611;23;20649;-95
2023/09/19 04:06:33;;;;;;;4.27;1.40;;;;;;;19.18;99.24;97893.75;5067890;23;20594;-95
2023/09/19 04:08:36;;;;;;;2.00;1.30;;;;;;;19.20;99.84;97900.56;5067403;23;20986;-94
2023/09/19 04:10:39;;;;;;;1.60;1.00;;;;;;;19.21;99.82;97896.91;5090956;23;20652;-95
2023/09/19 04:12:52;;;;;;;2.90;1.20;;;;;;;19.22;100.00;97900.41;5067618;23;20566;-94
2023/09/19 04:14:56;;;;;;;1.90;1.00;;;;;;;19.22;99.68;97903.03;5067035;23;20589;-95
2023/09/19 04:17:02;;;;;;;3.13;1.10;;;;;;;19.24;98.61;97901.03;5067679;23;20620;-95
2023/09/19 04:19:06;;;;;;;1.87;1.20;;;;;;;19.24;98.77;97907.16;5067455;23;20582;-95
2023/09/19 04:21:09;;;;;;;2.00;1.13;;;;;;;19.25;98.58;97913.28;5066892;23;20597;-95
2023/09/19 04:23:13;;;;;;;2.37;1.43;;;;;;;19.25;98.99;97908.00;5067763;23;20590;-95
2023/09/19 04:25:16;;;;;;;2.57;1.37;;;;;;;19.24;99.34;97909.81;5091116;23;20641;-96
2023/09/19 04:27:20;;;;;;;4.33;1.20;;;;;;;19.25;99.31;97911.47;5066685;23;20662;-96
2023/09/19 04:29:26;;;;;;;1.60;1.20;;;;;;;19.27;98.28;97917.41;5067023;23;20584;-96
2023/09/19 04:31:30;;;;;;;1.80;1.03;;;;;;;19.26;98.13;97915.78;5091821;23;20569;-95
2023/09/19 04:33:35;;;;;;;3.23;1.30;;;;;;;19.26;97.73;97921.06;5067719;23;20592;-94
2023/09/19 04:35:39;;;;;;;2.70;1.50;;;;;;;19.26;97.93;97929.00;5091082;23;20599;-94
2023/09/19 04:37:41;;;;;;;2.30;1.40;;;;;;;19.28;99.49;97923.56;5067102;23;20568;-95
2023/09/19 04:39:45;;;;;;;1.80;1.20;;;;;;;19.29;99.14;97935.75;5090944;23;21151;-95
2023/09/19 04:41:48;;;;;;;1.77;1.03;;;;;;;19.24;98.40;97927.50;5091009;23;20655;-94
2023/09/19 04:43:51;;;;;;;2.60;1.77;;;;;;;19.22;100.00;97932.94;5091289;23;20656;-94
2023/09/19 04:45:55;;;;;;;2.50;1.53;;;;;;;19.20;100.00;97939.38;5066186;23;20596;-94
2023/09/19 04:47:57;;;;;;;3.90;1.63;;;;;;;19.16;100.00;97924.84;5091283;23;20624;-95
2023/09/19 04:50:03;;;;;;;3.13;1.50;;;;;;;19.10;100.00;97931.59;5066706;23;20587;-93
2023/09/19 04:52:06;;;;;;;1.80;1.30;;;;;;;19.07;100.00;97939.84;5065072;23;20579;-93
2023/09/19 04:54:10;;;;;;;2.93;1.33;;;;;;;19.06;100.00;97935.56;5065540;23;20579;-93
2023/09/19 04:56:13;;;;;;;2.90;1.20;;;;;;;19.03;100.00;97932.38;5091330;23;20588;-94
2023/09/19 04:58:17;;;;;;;2.03;1.40;;;;;;;18.95;100.00;97933.16;5066512;23;20609;-93
2023/09/19 05:00:23;;;;;;;2.60;1.70;;;;;;;18.94;100.00;97935.97;5065479;23;21227;-93
2023/09/19 05:02:31;;;;;;;1.70;1.37;;;;;;;18.94;100.00;97943.91;5090365;23;20583;-93
2023/09/19 05:04:35;;;;;;;2.40;1.30;;;;;;;18.93;100.00;97940.44;5066509;23;20617;-93
2023/09/19 05:06:40;;;;;;;2.20;1.50;;;;;;;18.94;100.00;97946.53;5066196;23;20584;-93
2023/09/19 05:08:44;;;;;;;2.30;1.70;;;;;;;18.93;100.00;97950.19;5091144;23;21307;-94
2023/09/19 05:10:47;;;;;;;2.30;1.50;;;;;;;18.95;100.00;97948.19;5064213;23;21104;-93
2023/09/19 05:12:54;;;;;;;2.20;1.53;;;;;;;18.94;100.00;97951.81;5092508;23;20895;-93
2023/09/19 05:14:57;;;;;;;2.07;1.50;;;;;;;18.94;100.00;97954.47;5092333;23;20576;-93
2023/09/19 05:17:01;;;;;;;4.80;1.90;;;;;;;18.94;100.00;97952.69;5091359;23;20588;-94
2023/09/19 05:19:04;;;;;;;2.37;1.83;;;;;;;18.96;100.00;97960.44;5090741;23;20616;-93
2023/09/19 05:21:08;;;;;;;2.53;1.60;;;;;;;18.92;100.00;97956.44;5090515;23;20584;-93
2023/09/19 05:23:13;;;;;;;2.90;1.67;;;;;;;18.91;100.00;97965.34;5066437;23;20579;-93
2023/09/19 05:25:17;;;;;;;2.70;1.60;;;;;;;18.87;100.00;97973.75;5065946;23;20617;-94
2023/09/19 05:27:20;;;;;;;3.13;1.80;;;;;;;18.86;100.00;97969.50;5090672;23;20635;-93
2023/09/19 05:29:24;;;;;;;2.57;1.90;;;;;;;18.80;100.00;97968.28;5065963;23;21179;-94
2023/09/19 05:31:27;;;;;;;6.00;2.10;;;;;;;18.79;100.00;97979.84;5089925;23;20651;-95
2023/09/19 05:33:32;;;;;;;3.47;1.90;;;;;;;18.72;100.00;97967.41;5067219;23;20609;-95
2023/09/19 05:35:39;;;;;;;3.30;2.40;;;;;;;18.55;100.00;97971.81;5066499;23;20579;-94
2023/09/19 05:37:43;;;;;;;3.10;2.37;;;;;;;18.44;100.00;97969.41;5066710;23;20636;-95
2023/09/19 05:39:49;;;;;;;3.13;1.97;;;;;;;18.28;100.00;97978.22;5067778;23;21095;-94
2023/09/19 05:41:52;;;;;;;3.17;2.20;;;;;;;18.20;100.00;97981.63;5066230;23;20582;-94
2023/09/19 05:43:55;;;;;;;2.67;2.10;;;;;;;18.21;100.00;97988.56;5066732;23;20600;-93
2023/09/19 05:46:01;;;;;;;4.93;2.70;;;;;;;18.27;100.00;97987.16;5066927;23;20588;-94
2023/09/19 05:48:09;;;;;;;2.80;2.40;;;;;;;18.32;100.00;97990.13;5065656;23;20585;-93
2023/09/19 05:50:14;;;;;;;8.40;2.10;;;;;;;18.35;100.00;97998.56;5065618;23;20583;-94
2023/09/19 05:52:19;;;;;;;6.20;2.70;;;;;;;18.36;100.00;98008.16;5065270;23;20640;-93
2023/09/19 05:54:22;;;;;;;3.00;2.30;;;;;;;18.39;100.00;98012.28;5066554;23;20600;-93
2023/09/19 05:56:27;;;;;;;5.20;2.50;;;;;;;18.40;100.00;98014.78;5066321;23;20644;-94
2023/09/19 05:58:30;;;;;;;5.33;2.77;;;;;;;18.41;100.00;98015.63;5066708;23;20624;-94
2023/09/19 06:00:34;;;;;;;3.30;2.50;;;;;;;18.42;100.00;98018.94;5066369;23;20592;-95
2023/09/19 06:02:44;;;;;;;4.00;2.17;;;;;;;18.43;100.00;98017.97;5066579;23;20601;-95
2023/09/19 06:04:49;;;;;;;3.87;2.00;;;;;;;18.43;100.00;98015.31;5065969;23;20691;-94
2023/09/19 06:06:53;;;;;;;2.47;2.00;;;;;;;18.42;100.00;98018.13;5091720;23;20564;-96
2023/09/19 06:08:57;;;;;;;4.03;2.13;;;;;;;18.39;100.00;98017.56;5095253;23;20648;-96
2023/09/19 06:11:02;;;;;;;2.70;1.90;;;;;;;18.39;100.00;98025.50;5071137;23;21087;-96
2023/09/19 06:13:09;;;;;;;3.60;2.20;;;;;;;18.42;100.00;98033.97;5067587;23;20636;-96
2023/09/19 06:15:15;;;;;;;2.93;1.80;;;;;;;18.44;100.00;98040.72;5092626;23;20717;-96
2023/09/19 06:17:19;;;;;;;2.57;1.90;;;;;;;18.44;100.00;98043.38;5068683;23;20576;-95
2023/09/19 06:19:25;;;;;;;4.60;1.70;;;;;;;18.45;100.00;98044.22;5064792;23;20910;-94
2023/09/19 06:21:29;;;;;;;3.87;1.73;;;;;;;18.46;100.00;98045.84;5065636;23;20569;-94
2023/09/19 06:23:34;;;;;;;3.10;2.03;;;;;;;18.51;100.00;98043.59;5066616;23;20590;-95
2023/09/19 06:25:39;;;;;;;3.10;1.83;;;;;;;18.54;100.00;98059.16;5090108;23;20634;-94
2023/09/19 06:27:44;;;;;;;3.60;2.20;;;;;;;18.55;100.00;98059.00;5066850;23;20580;-94
2023/09/19 06:29:49;;;;;;;3.20;2.40;;;;;;;18.49;100.00;98056.97;5090545;23;20620;-94
2023/09/19 06:31:53;;;;;;;3.43;2.30;;;;;;;18.45;100.00;98060.88;5065482;23;20683;-93
2023/09/19 06:33:56;;;;;;;3.40;1.93;;;;;;;18.43;100.00;98054.94;5065462;23;20577;-95
2023/09/19 06:36:00;;;;;;;3.20;2.23;;;;;;;18.44;100.00;98058.41;5090383;23;20588;-94
2023/09/19 06:38:04;;;;;;;2.83;2.27;;;;;;;18.45;100.00;98054.78;5090924;23;20593;-94
2023/09/19 06:40:13;;;;;;;2.50;2.10;;;;;;;18.52;100.00;98058.44;5066285;23;20586;-94
2023/09/19 06:42:18;;;;;;;2.60;2.13;;;;;;;18.57;100.00;98062.31;5066146;23;20845;-94
2023/09/19 06:44:24;;;;;;;3.53;2.27;;;;;;;18.65;100.00;98056.25;5066504;23;20592;-92
2023/09/19 06:46:32;;;;;;;5.00;4.30;;;;;;;18.69;100.00;98058.44;5067475;23;20621;-96
2023/09/19 06:48:37;;;;;;;4.57;2.50;;;;;;;18.65;100.00;98061.53;5068606;23;20639;-96
2023/09/19 06:50:41;;;;;;;5.40;3.80;;;;;;;18.62;100.00;98065.31;5069017;23;20623;-96
2023/09/19 06:52:46;;;;;;;3.73;2.40;;;;;;;18.53;100.00;98068.88;5069389;23;21111;-96
2023/09/19 06:54:52;;;;;;;3.90;2.50;;;;;;;18.56;100.00;98076.50;5065165;23;20676;-96
2023/09/19 06:56:56;;;;;;;2.90;2.40;;;;;;;18.48;100.00;98070.34;5068209;23;20581;-96
2023/09/19 06:58:59;;;;;;;2.60;2.10;;;;;;;18.44;100.00;98074.25;5069421;23;20671;-96
2023/09/19 07:01:04;;;;;;;3.50;2.47;;;;;;;18.49;100.00;98080.75;5068578;23;21013;-96
2023/09/19 07:03:11;;;;;;;2.87;2.23;;;;;;;18.54;100.00;98086.38;5069149;23;21150;-96
2023/09/19 07:05:16;;;;;;;4.47;2.43;;;;;;;18.55;100.00;98084.56;5067743;23;20598;-96
2023/09/19 07:07:20;;;;;;;5.20;2.40;;;;;;;18.65;100.00;98080.84;5068963;23;20597;-96
2023/09/19 07:09:27;;;;;;;3.37;2.50;;;;;;;18.80;100.00;98094.34;5068919;23;20610;-95
2023/09/19 07:11:31;;;;;;;5.73;2.90;;;;;;;19.00;100.00;98093.97;5067787;23;20592;-96
2023/09/19 07:13:35;;;;;;;4.10;2.40;;;;;;;19.19;100.00;98093.78;5067515;23;20685;-92
2023/09/19 07:15:41;;;;;;;3.93;2.50;;;;;;;19.46;100.00;98103.16;5064850;23;20684;-91
2023/09/19 07:17:46;;;;;;;3.13;2.27;;;;;;;19.71;100.00;98099.63;5064500;23;21121;-91
2023/09/19 07:19:51;;;;;;;3.23;2.27;;;;;;;19.83;100.00;98102.78;5089588;23;20579;-91
2023/09/19 07:22:02;;;;;;;3.50;2.23;;;;;;;19.81;100.00;98102.97;5065703;23;20582;-91
2023/09/19 07:24:07;;;;;;;3.50;2.30;;;;;;;19.90;100.00;98104.66;5065490;23;20583;-91
2023/09/19 07:26:11;;;;;;;4.50;2.47;;;;;;;20.00;100.00;98105.38;5089597;23;20550;-92
2023/09/19 07:28:17;;;;;;;6.77;2.67;;;;;;;20.17;99.83;98113.16;5064855;23;20624;-91
2023/09/19 07:30:20;;;;;;;3.30;2.40;;;;;;;20.30;99.09;98113.53;5063461;23;20616;-91
2023/09/19 07:32:24;;;;;;;3.93;2.33;;;;;;;20.47;98.80;98120.50;5089347;23;21124;-91
2023/09/19 07:34:27;;;;;;;4.10;2.37;;;;;;;20.46;94.77;98116.19;5088616;23;20665;-91
2023/09/19 07:36:33;;;;;;;2.47;2.00;;;;;;;20.34;95.07;98120.13;5064775;23;20637;-91
2023/09/19 07:38:36;;;;;;;3.83;2.60;;;;;;;20.30;94.90;98123.28;5089452;23;20611;-91
2023/09/19 07:40:39;;;;;;;3.87;2.33;;;;;;;20.23;95.61;98124.94;5089402;23;20590;-91
2023/09/19 07:42:44;;;;;;;5.90;2.47;;;;;;;20.12;97.12;98119.97;5064893;23;20590;-90
2023/09/19 07:44:50;;;;;;;3.30;2.30;;;;;;;20.04;96.27;98123.44;5063905;23;21001;-91
2023/09/19 07:46:54;;;;;;;4.73;2.43;;;;;;;19.98;97.41;98126.72;5064890;23;21124;-91
2023/09/19 07:49:01;;;;;;;6.33;2.60;;;;;;;19.89;96.45;98125.03;5065743;23;20623;-92
2023/09/19 07:51:04;;;;;;;3.80;2.50;;;;;;;20.03;98.04;98127.06;5064839;23;20613;-91
2023/09/19 07:53:09;;;;;;;4.07;2.20;;;;;;;20.15;97.94;98128.41;5065292;23;20636;-91
2023/09/19 07:55:16;;;;;;;4.77;2.57;;;;;;;20.39;97.87;98137.22;5089820;23;20682;-91
2023/09/19 07:57:19;;;;;;;3.83;2.40;;;;;;;20.57;96.52;98137.91;5089865;23;20680;-91
2023/09/19 07:59:24;;;;;;;2.93;2.20;;;;;;;20.76;96.53;98140.22;5065440;23;20571;-92
2023/09/19 08:01:29;;;;;;;5.43;2.17;;;;;;;20.93;93.19;98147.22;5065047;23;20590;-92
2023/09/19 08:03:34;;;;;;;3.20;1.90;;;;;;;21.08;92.87;98150.81;5064542;23;20588;-92
2023/09/19 08:05:38;;;;;;;5.10;2.30;;;;;;;21.24;92.78;98153.47;5089508;23;20665;-91
2023/09/19 08:07:43;;;;;;;3.57;2.17;;;;;;;21.37;92.37;98158.06;5065136;23;20969;-91
2023/09/19 08:09:48;;;;;;;3.03;1.57;;;;;;;21.47;90.68;98150.78;5038901;23;20671;-91
2023/09/19 08:11:51;;;;;;;3.17;1.60;;;;;;;21.48;89.47;98160.38;5064033;23;20659;-89
2023/09/19 08:13:58;;;;;;;4.00;2.00;;;;;;;21.56;87.16;98157.72;5088385;23;20761;-90
2023/09/19 08:16:01;;;;;;;4.47;1.60;;;;;;;21.64;85.79;98159.53;5090966;23;20618;-90
2023/09/19 08:18:04;;;;;;;3.17;1.67;;;;;;;21.69;87.84;98157.19;5090752;23;20591;-90
2023/09/19 08:20:15;;;;;;;2.50;1.37;;;;;;;21.77;87.98;98163.31;5064693;23;21114;-90
2023/09/19 08:22:21;;;;;;;2.93;1.60;;;;;;;21.79;87.02;98166.59;5065168;23;20583;-89
2023/09/19 08:24:27;;;;;;;3.17;2.03;;;;;;;21.82;86.60;98158.28;5089620;23;20587;-92
2023/09/19 08:26:32;;;;;;;3.57;1.60;;;;;;;21.86;86.47;98157.78;5091282;23;20609;-91
2023/09/19 08:28:42;;;;;;;2.47;1.43;;;;;;;21.91;84.25;98152.75;5091533;23;20551;-91
2023/09/19 08:30:48;;;;;;;2.70;1.40;;;;;;;21.92;83.25;98161.56;5064318;23;20644;-91
2023/09/19 08:32:52;;;;;;;4.03;1.77;;;;;;;22.02;83.55;98160.34;5090657;23;20678;-92
2023/09/19 08:34:55;;;;;;;2.30;1.60;;;;;;;22.16;86.58;98159.63;5065714;23;20580;-92
2023/09/19 08:36:58;;;;;;;2.90;1.57;;;;;;;;;;5064502;23;20578;-92
2023/09/19 08:39:02;;;;;;;4.23;1.57;;;;;;;22.38;81.50;98164.16;5089658;23;20572;-92
2023/09/19 08:41:07;;;;;;;1.83;1.23;;;;;;;22.46;81.99;98162.28;5089593;23;20634;-92
2023/09/19 08:43:12;;;;;;;3.03;1.30;;;;;;;22.57;82.04;98155.75;5089361;23;20584;-92
2023/09/19 08:45:18;;;;;;;2.10;1.33;;;;;;;22.63;80.66;98161.16;5065329;23;20569;-93
2023/09/19 08:47:32;;;;;;;5.00;1.20;;;;;;;22.73;81.52;98161.75;5114663;23;20558;-92
2023/09/19 08:49:43;;;;;;;4.23;1.20;;;;;;;22.89;81.19;98174.94;5090106;23;21164;-92
2023/09/19 08:51:46;;;;;;;3.37;1.30;;;;;;;22.89;80.55;98169.59;5064909;23;21150;-91
2023/09/19 08:53:53;;;;;;;2.37;1.30;;;;;;;22.86;79.86;98168.13;5088055;23;20590;-92
2023/09/19 08:56:03;;;;;;;2.03;1.17;;;;;;;22.94;77.38;98173.44;5065601;23;20604;-92
2023/09/19 08:58:07;;;;;;;3.60;1.30;;;;;;;22.97;77.64;98172.22;5064938;23;20591;-92
2023/09/19 09:00:17;;;;;;;3.40;1.20;;;;;;;22.97;78.18;98177.53;5064656;23;20641;-92
2023/09/19 09:02:20;;;;;;;2.57;1.50;;;;;;;23.04;79.83;98166.00;5088496;23;20582;-92
2023/09/19 09:04:25;;;;;;;2.20;1.33;;;;;;;23.12;79.39;98175.75;5089991;23;20643;-92
2023/09/19 09:06:32;;;;;;;2.50;1.40;;;;;;;23.07;77.09;98173.63;5090520;23;20614;-92
2023/09/19 09:08:39;;;;;;;7.97;1.97;;;;;;;23.08;75.25;98177.09;5089004;23;20675;-92
2023/09/19 09:10:45;;;;;;;2.33;1.20;;;;;;;22.97;75.99;98172.22;5090171;23;20609;-92
2023/09/19 09:12:49;;;;;;;3.77;1.40;;;;;;;22.91;77.96;98171.09;5087982;23;20557;-92
2023/09/19 09:14:52;;;;;;;2.90;1.30;;;;;;;22.95;76.82;98182.22;5088697;23;20587;-92
2023/09/19 09:16:59;;;;;;;2.30;1.40;;;;;;;22.99;78.12;98172.91;5089199;23;20648;-93
2023/09/19 09:19:02;;;;;;;2.63;1.47;;;;;;;22.99;76.49;98180.88;5089503;23;20604;-91
2023/09/19 09:21:08;;;;;;;2.07;1.20;;;;;;;22.97;77.33;98165.09;5064868;23;20609;-92
2023/09/19 09:23:14;;;;;;;2.40;1.33;;;;;;;23.06;77.77;98174.63;5088849;23;20569;-92
2023/09/19 09:25:18;;;;;;;2.50;1.30;;;;;;;23.07;75.95;98170.97;5088797;23;20673;-93
2023/09/19 09:27:24;;;;;;;2.93;1.23;;;;;;;23.03;76.63;98174.16;5064517;23;21264;-91
2023/09/19 09:29:43;;;;;;;2.00;1.30;;;;;;;23.10;77.30;98178.59;5063551;23;20586;-92
2023/09/19 09:31:48;;;;;;;2.33;1.37;;;;;;;23.21;77.38;98171.00;5087738;23;20676;-92
2023/09/19 09:33:55;;;;;;;4.80;1.40;;;;;;;23.33;77.95;98177.56;5064197;23;20972;-90
2023/09/19 09:36:00;;;;;;;3.40;1.40;;;;;;;23.35;77.30;98174.72;5088913;23;20569;-89
2023/09/19 09:38:08;;;;;;;3.10;1.67;;;;;;;23.41;77.72;98174.81;5062925;23;20986;-90
2023/09/19 09:40:34;;;;;;;2.57;1.50;;;;;;;23.45;77.14;98162.75;5064471;23;20616;-91
2023/09/19 09:42:39;;;;;;;3.50;2.00;;;;;;;23.39;73.51;98160.81;5090290;23;20649;-89
2023/09/19 09:44:43;;;;;;;4.87;1.40;;;;;;;23.12;75.61;98157.13;5063924;23;20585;-89
2023/09/19 09:49:19;;;;;;;2.27;1.50;;;;;;;23.21;76.49;98155.03;5067904;23;20598;-90
2023/09/19 09:51:30;;;;;;;3.13;1.70;;;;;;;23.31;76.84;98160.09;5089373;23;20601;-89